sensor_id;sensor_type;location;lat;lon;timestamp;pressure;altitude;pressure_sealevel;temperature;humidity
35443;BME280;21561;55.654;37.592;2024-03-29T00:00:42;98649.66;;;3.84;70.46
35443;BME280;21561;55.654;37.592;2024-03-29T00:03:10;98633.41;;;3.85;70.58
35443;BME280;21561;55.654;37.592;2024-03-29T00:05:37;98638.56;;;3.91;70.85
35443;BME280;21561;55.654;37.592;2024-03-29T00:08:03;98638.59;;;4.04;70.06
35443;BME280;21561;55.654;37.592;2024-03-29T00:10:29;98636.91;;;4.12;69.96
35443;BME280;21561;55.654;37.592;2024-03-29T00:12:55;98639.50;;;4.26;69.59
35443;BME280;21561;55.654;37.592;2024-03-29T00:15:21;98633.53;;;4.30;69.34
35443;BME280;21561;55.654;37.592;2024-03-29T00:17:47;98624.09;;;4.24;69.12
35443;BME280;21561;55.654;37.592;2024-03-29T00:20:13;98624.97;;;4.20;69.27
35443;BME280;21561;55.654;37.592;2024-03-29T00:22:38;98621.53;;;4.15;69.56
35443;BME280;21561;55.654;37.592;2024-03-29T00:25:05;98618.94;;;4.10;69.77
35443;BME280;21561;55.654;37.592;2024-03-29T00:27:31;98614.63;;;4.05;70.07
35443;BME280;21561;55.654;37.592;2024-03-29T00:29:58;98614.66;;;4.08;70.53
35443;BME280;21561;55.654;37.592;2024-03-29T00:32:25;98607.78;;;4.04;70.38
35443;BME280;21561;55.654;37.592;2024-03-29T00:34:52;98602.66;;;4.00;71.13
35443;BME280;21561;55.654;37.592;2024-03-29T00:37:18;98595.78;;;3.99;70.92
35443;BME280;21561;55.654;37.592;2024-03-29T00:39:45;98604.34;;;3.95;70.99
35443;BME280;21561;55.654;37.592;2024-03-29T00:42:11;98591.50;;;3.92;71.19
35443;BME280;21561;55.654;37.592;2024-03-29T00:44:42;98592.34;;;3.88;71.26
35443;BME280;21561;55.654;37.592;2024-03-29T00:47:09;98586.38;;;3.88;71.63
35443;BME280;21561;55.654;37.592;2024-03-29T00:49:35;98595.78;;;3.84;71.64
35443;BME280;21561;55.654;37.592;2024-03-29T00:52:03;98582.94;;;3.81;72.21
35443;BME280;21561;55.654;37.592;2024-03-29T00:54:30;98582.06;;;3.79;72.20
35443;BME280;21561;55.654;37.592;2024-03-29T00:56:56;98583.78;;;3.77;72.39
35443;BME280;21561;55.654;37.592;2024-03-29T00:59:22;98574.38;;;3.77;72.43
35443;BME280;21561;55.654;37.592;2024-03-29T01:01:49;98570.94;;;3.77;72.47
35443;BME280;21561;55.654;37.592;2024-03-29T01:04:15;98564.94;;;3.78;72.38
35443;BME280;21561;55.654;37.592;2024-03-29T01:06:42;98558.97;;;3.77;73.04
35443;BME280;21561;55.654;37.592;2024-03-29T01:09:09;98557.25;;;3.76;72.99
35443;BME280;21561;55.654;37.592;2024-03-29T01:11:38;98556.38;;;3.73;73.01
35443;BME280;21561;55.654;37.592;2024-03-29T01:14:05;98549.53;;;3.72;73.32
35443;BME280;21561;55.654;37.592;2024-03-29T01:16:31;98549.53;;;3.69;73.64
35443;BME280;21561;55.654;37.592;2024-03-29T01:19:03;98547.84;;;3.77;73.52
35443;BME280;21561;55.654;37.592;2024-03-29T01:21:31;98545.25;;;3.72;73.77
35443;BME280;21561;55.654;37.592;2024-03-29T01:23:57;98542.66;;;3.68;74.15
35443;BME280;21561;55.654;37.592;2024-03-29T01:26:22;98540.13;;;3.66;74.38
35443;BME280;21561;55.654;37.592;2024-03-29T01:28:49;98542.66;;;3.68;74.47
35443;BME280;21561;55.654;37.592;2024-03-29T01:31:14;98534.13;;;3.69;74.24
35443;BME280;21561;55.654;37.592;2024-03-29T01:33:41;98531.56;;;3.67;74.22
35443;BME280;21561;55.654;37.592;2024-03-29T01:36:07;98532.41;;;3.68;74.73
35443;BME280;21561;55.654;37.592;2024-03-29T01:38:34;98534.13;;;3.66;75.00
35443;BME280;21561;55.654;37.592;2024-03-29T01:41:00;98527.28;;;3.68;74.61
35443;BME280;21561;55.654;37.592;2024-03-29T01:43:26;98525.59;;;3.67;75.05
35443;BME280;21561;55.654;37.592;2024-03-29T01:45:56;98516.16;;;3.66;75.04
35443;BME280;21561;55.654;37.592;2024-03-29T01:48:23;98513.59;;;3.66;75.24
35443;BME280;21561;55.654;37.592;2024-03-29T01:50:50;98504.19;;;3.68;75.13
35443;BME280;21561;55.654;37.592;2024-03-29T01:53:18;98506.75;;;3.68;75.61
35443;BME280;21561;55.654;37.592;2024-03-29T01:55:44;98506.78;;;3.71;75.36
35443;BME280;21561;55.654;37.592;2024-03-29T01:58:11;98501.66;;;3.74;75.26
35443;BME280;21561;55.654;37.592;2024-03-29T02:00:58;98495.69;;;3.81;75.05
35443;BME280;21561;55.654;37.592;2024-03-29T02:03:25;98491.38;;;3.78;75.41
35443;BME280;21561;55.654;37.592;2024-03-29T02:05:52;98488.00;;;3.84;75.39
35443;BME280;21561;55.654;37.592;2024-03-29T02:08:19;98476.88;;;3.87;74.90
35443;BME280;21561;55.654;37.592;2024-03-29T02:10:48;98477.72;;;3.90;75.18
35443;BME280;21561;55.654;37.592;2024-03-29T02:13:15;98479.44;;;3.91;75.05
35443;BME280;21561;55.654;37.592;2024-03-29T02:15:41;98468.31;;;3.94;74.87
35443;BME280;21561;55.654;37.592;2024-03-29T02:18:08;98471.72;;;3.94;75.15
35443;BME280;21561;55.654;37.592;2024-03-29T02:20:34;98463.19;;;3.97;75.21
35443;BME280;21561;55.654;37.592;2024-03-29T02:23:15;98461.47;;;4.10;74.83
35443;BME280;21561;55.654;37.592;2024-03-29T02:25:41;98464.88;;;4.07;74.61
35443;BME280;21561;55.654;37.592;2024-03-29T02:28:07;98458.03;;;4.05;74.45
35443;BME280;21561;55.654;37.592;2024-03-29T02:30:33;98455.47;;;4.05;74.99
35443;BME280;21561;55.654;37.592;2024-03-29T02:33:00;98453.75;;;4.07;74.51
35443;BME280;21561;55.654;37.592;2024-03-29T02:35:26;98452.91;;;4.08;74.68
35443;BME280;21561;55.654;37.592;2024-03-29T02:37:53;98449.47;;;4.07;74.57
35443;BME280;21561;55.654;37.592;2024-03-29T02:40:19;98458.91;;;4.07;74.83
35443;BME280;21561;55.654;37.592;2024-03-29T02:42:47;98457.19;;;4.07;74.81
35443;BME280;21561;55.654;37.592;2024-03-29T02:45:13;98457.19;;;4.12;74.82
35443;BME280;21561;55.654;37.592;2024-03-29T02:47:39;98457.19;;;4.15;74.50
35443;BME280;21561;55.654;37.592;2024-03-29T02:50:08;98452.91;;;4.17;74.55
35443;BME280;21561;55.654;37.592;2024-03-29T02:52:34;98450.34;;;4.17;74.64
35443;BME280;21561;55.654;37.592;2024-03-29T02:55:00;98447.78;;;4.18;74.78
35443;BME280;21561;55.654;37.592;2024-03-29T02:57:26;98438.38;;;4.22;74.47
35443;BME280;21561;55.654;37.592;2024-03-29T02:59:52;98423.81;;;4.23;74.35
35443;BME280;21561;55.654;37.592;2024-03-29T03:02:17;98423.81;;;4.26;74.79
35443;BME280;21561;55.654;37.592;2024-03-29T03:04:43;98416.09;;;4.27;74.74
35443;BME280;21561;55.654;37.592;2024-03-29T03:07:09;98415.22;;;4.27;74.19
35443;BME280;21561;55.654;37.592;2024-03-29T03:09:53;98419.53;;;4.26;74.21
35443;BME280;21561;55.654;37.592;2024-03-29T03:12:38;98409.25;;;4.26;74.16
35443;BME280;21561;55.654;37.592;2024-03-29T03:15:04;98412.66;;;4.25;74.12
35443;BME280;21561;55.654;37.592;2024-03-29T03:17:30;98408.41;;;4.23;74.38
35443;BME280;21561;55.654;37.592;2024-03-29T03:19:57;98410.97;;;4.18;74.25
35443;BME280;21561;55.654;37.592;2024-03-29T03:22:24;98404.13;;;4.14;74.40
35443;BME280;21561;55.654;37.592;2024-03-29T03:24:50;98399.00;;;4.11;74.47
35443;BME280;21561;55.654;37.592;2024-03-29T03:27:15;98405.84;;;4.09;74.87
35443;BME280;21561;55.654;37.592;2024-03-29T03:29:41;98399.00;;;4.08;74.75
35443;BME280;21561;55.654;37.592;2024-03-29T03:32:07;98399.84;;;4.07;74.89
35443;BME280;21561;55.654;37.592;2024-03-29T03:34:33;98393.88;;;4.05;74.82
35443;BME280;21561;55.654;37.592;2024-03-29T03:36:59;98398.16;;;4.04;75.25
35443;BME280;21561;55.654;37.592;2024-03-29T03:39:25;98399.00;;;4.01;75.10
35443;BME280;21561;55.654;37.592;2024-03-29T03:41:51;98395.59;;;4.03;75.03
35443;BME280;21561;55.654;37.592;2024-03-29T03:44:17;98391.31;;;4.03;74.80
35443;BME280;21561;55.654;37.592;2024-03-29T03:46:43;98389.59;;;4.02;74.98
35443;BME280;21561;55.654;37.592;2024-03-29T03:49:09;98388.72;;;4.01;75.07
35443;BME280;21561;55.654;37.592;2024-03-29T03:51:35;98386.16;;;4.00;75.34
35443;BME280;21561;55.654;37.592;2024-03-29T03:54:01;98387.88;;;4.01;75.29
35443;BME280;21561;55.654;37.592;2024-03-29T03:56:27;98373.31;;;4.01;75.17
35443;BME280;21561;55.654;37.592;2024-03-29T03:58:53;98383.59;;;4.01;75.14
35443;BME280;21561;55.654;37.592;2024-03-29T04:01:19;98379.34;;;4.02;75.21
35443;BME280;21561;55.654;37.592;2024-03-29T04:03:45;98375.91;;;4.08;75.48
35443;BME280;21561;55.654;37.592;2024-03-29T04:06:11;98370.75;;;4.11;74.77
35443;BME280;21561;55.654;37.592;2024-03-29T04:08:36;98366.50;;;4.13;74.99
35443;BME280;21561;55.654;37.592;2024-03-29T04:11:03;98352.78;;;4.15;75.24
35443;BME280;21561;55.654;37.592;2024-03-29T04:13:29;98354.47;;;4.24;74.55
35443;BME280;21561;55.654;37.592;2024-03-29T04:16:04;98354.44;;;4.30;74.29
35443;BME280;21561;55.654;37.592;2024-03-29T04:18:30;98360.47;;;4.28;74.28
35443;BME280;21561;55.654;37.592;2024-03-29T04:21:00;98348.44;;;4.39;74.30
35443;BME280;21561;55.654;37.592;2024-03-29T04:23:27;98347.59;;;4.42;73.91
35443;BME280;21561;55.654;37.592;2024-03-29T04:25:54;98340.72;;;4.42;73.15
35443;BME280;21561;55.654;37.592;2024-03-29T04:28:20;98340.72;;;4.40;73.56
35443;BME280;21561;55.654;37.592;2024-03-29T04:30:53;98337.28;;;4.45;74.63
35443;BME280;21561;55.654;37.592;2024-03-29T04:33:19;98346.72;;;4.41;73.83
35443;BME280;21561;55.654;37.592;2024-03-29T04:38:22;98327.03;;;4.37;73.82
35443;BME280;21561;55.654;37.592;2024-03-29T04:40:49;98321.91;;;4.38;73.73
35443;BME280;21561;55.654;37.592;2024-03-29T04:43:15;98311.63;;;4.40;73.63
35443;BME280;21561;55.654;37.592;2024-03-29T04:45:41;98314.19;;;4.42;73.77
35443;BME280;21561;55.654;37.592;2024-03-29T04:48:07;98303.94;;;4.42;73.74
35443;BME280;21561;55.654;37.592;2024-03-29T04:50:33;98297.91;;;4.44;73.80
35443;BME280;21561;55.654;37.592;2024-03-29T04:53:02;98303.88;;;4.46;73.56
35443;BME280;21561;55.654;37.592;2024-03-29T04:55:38;98291.03;;;4.51;73.48
35443;BME280;21561;55.654;37.592;2024-03-29T04:58:05;98291.03;;;4.48;73.30
35443;BME280;21561;55.654;37.592;2024-03-29T05:00:31;98289.31;;;4.47;73.15
35443;BME280;21561;55.654;37.592;2024-03-29T05:03:00;98291.03;;;4.48;73.11
35443;BME280;21561;55.654;37.592;2024-03-29T05:05:34;98280.78;;;4.46;73.37
35443;BME280;21561;55.654;37.592;2024-03-29T05:08:00;98268.81;;;4.44;73.22
35443;BME280;21561;55.654;37.592;2024-03-29T05:10:26;98267.94;;;4.45;73.28
35443;BME280;21561;55.654;37.592;2024-03-29T05:12:52;98260.22;;;4.52;73.23
35443;BME280;21561;55.654;37.592;2024-03-29T05:15:19;98270.50;;;4.51;73.21
35443;BME280;21561;55.654;37.592;2024-03-29T05:17:45;98264.50;;;4.46;73.30
35443;BME280;21561;55.654;37.592;2024-03-29T05:20:11;98256.81;;;4.43;73.27
35443;BME280;21561;55.654;37.592;2024-03-29T05:22:37;98255.13;;;4.42;73.30
35443;BME280;21561;55.654;37.592;2024-03-29T05:25:03;98261.94;;;4.39;73.47
35443;BME280;21561;55.654;37.592;2024-03-29T05:27:29;98268.81;;;4.40;73.34
35443;BME280;21561;55.654;37.592;2024-03-29T05:29:55;98269.66;;;4.39;73.12
35443;BME280;21561;55.654;37.592;2024-03-29T05:32:21;98264.53;;;4.39;73.10
35443;BME280;21561;55.654;37.592;2024-03-29T05:34:47;98262.78;;;4.43;73.09
35443;BME280;21561;55.654;37.592;2024-03-29T05:37:13;98263.63;;;4.50;73.06
35443;BME280;21561;55.654;37.592;2024-03-29T05:39:41;98261.91;;;4.55;72.79
35443;BME280;21561;55.654;37.592;2024-03-29T05:42:07;98261.88;;;4.58;72.97
35443;BME280;21561;55.654;37.592;2024-03-29T05:44:35;98255.84;;;4.62;72.79
35443;BME280;21561;55.654;37.592;2024-03-29T05:47:02;98245.59;;;4.64;72.31
35443;BME280;21561;55.654;37.592;2024-03-29T05:49:31;98275.53;;;4.69;72.26
35443;BME280;21561;55.654;37.592;2024-03-29T05:51:57;98263.50;;;4.71;72.21
35443;BME280;21561;55.654;37.592;2024-03-29T05:54:23;98271.22;;;4.74;72.21
35443;BME280;21561;55.654;37.592;2024-03-29T05:56:50;98265.19;;;4.77;71.99
35443;BME280;21561;55.654;37.592;2024-03-29T05:59:16;98262.63;;;4.78;72.05
35443;BME280;21561;55.654;37.592;2024-03-29T06:01:42;98254.91;;;4.82;72.19
35443;BME280;21561;55.654;37.592;2024-03-29T06:04:08;98267.75;;;4.82;71.73
35443;BME280;21561;55.654;37.592;2024-03-29T06:06:39;98261.72;;;4.86;71.79
35443;BME280;21561;55.654;37.592;2024-03-29T06:09:05;98265.13;;;4.88;71.61
35443;BME280;21561;55.654;37.592;2024-03-29T06:11:31;98259.97;;;4.89;71.95
35443;BME280;21561;55.654;37.592;2024-03-29T06:13:57;98265.97;;;4.91;71.45
35443;BME280;21561;55.654;37.592;2024-03-29T06:16:24;98247.09;;;4.95;71.47
35443;BME280;21561;55.654;37.592;2024-03-29T06:19:09;98247.94;;;4.99;71.32
35443;BME280;21561;55.654;37.592;2024-03-29T06:21:35;98249.59;;;5.03;71.08
35443;BME280;21561;55.654;37.592;2024-03-29T06:24:06;98241.84;;;5.08;71.00
35443;BME280;21561;55.654;37.592;2024-03-29T06:26:34;98255.56;;;5.10;70.70
35443;BME280;21561;55.654;37.592;2024-03-29T06:29:01;98264.97;;;5.12;70.96
35443;BME280;21561;55.654;37.592;2024-03-29T06:31:30;98264.06;;;5.18;70.90
35443;BME280;21561;55.654;37.592;2024-03-29T06:33:57;98252.88;;;5.24;70.21
35443;BME280;21561;55.654;37.592;2024-03-29T06:36:24;98257.16;;;5.25;70.57
35443;BME280;21561;55.654;37.592;2024-03-29T06:38:52;98250.28;;;5.27;70.41
35443;BME280;21561;55.654;37.592;2024-03-29T06:41:17;98249.44;;;5.28;70.22
35443;BME280;21561;55.654;37.592;2024-03-29T06:43:44;98250.28;;;5.25;70.40
35443;BME280;21561;55.654;37.592;2024-03-29T06:46:11;98263.16;;;5.24;70.22
35443;BME280;21561;55.654;37.592;2024-03-29T06:48:37;98260.59;;;5.24;70.21
35443;BME280;21561;55.654;37.592;2024-03-29T06:51:03;98259.72;;;5.25;70.66
35443;BME280;21561;55.654;37.592;2024-03-29T06:53:29;98256.25;;;5.29;70.49
35443;BME280;21561;55.654;37.592;2024-03-29T06:55:55;98249.38;;;5.31;70.28
35443;BME280;21561;55.654;37.592;2024-03-29T06:58:23;98245.09;;;5.31;70.34
35443;BME280;21561;55.654;37.592;2024-03-29T07:00:49;98247.66;;;5.33;70.54
35443;BME280;21561;55.654;37.592;2024-03-29T07:03:16;98251.00;;;5.41;70.21
35443;BME280;21561;55.654;37.592;2024-03-29T07:05:48;98244.03;;;5.52;70.18
35443;BME280;21561;55.654;37.592;2024-03-29T07:08:14;98226.91;;;5.53;69.83
35443;BME280;21561;55.654;37.592;2024-03-29T07:10:40;98233.69;;;5.62;69.70
35443;BME280;21561;55.654;37.592;2024-03-29T07:13:06;98233.63;;;5.66;69.64
35443;BME280;21561;55.654;37.592;2024-03-29T07:15:32;98229.31;;;5.68;69.54
35443;BME280;21561;55.654;37.592;2024-03-29T07:17:59;98231.03;;;5.68;69.11
35443;BME280;21561;55.654;37.592;2024-03-29T07:20:26;98226.72;;;5.70;69.21
35443;BME280;21561;55.654;37.592;2024-03-29T07:22:52;98233.59;;;5.71;68.86
35443;BME280;21561;55.654;37.592;2024-03-29T07:25:18;98225.91;;;5.68;69.03
35443;BME280;21561;55.654;37.592;2024-03-29T07:27:44;98221.59;;;5.67;69.08
35443;BME280;21561;55.654;37.592;2024-03-29T07:30:11;98231.06;;;5.66;69.19
35443;BME280;21561;55.654;37.592;2024-03-29T07:32:37;98220.78;;;5.65;69.10
35443;BME280;21561;55.654;37.592;2024-03-29T07:35:03;98223.31;;;5.68;69.73
35443;BME280;21561;55.654;37.592;2024-03-29T07:37:30;98218.16;;;5.68;69.63
35443;BME280;21561;55.654;37.592;2024-03-29T07:39:55;98214.75;;;5.69;69.58
35443;BME280;21561;55.654;37.592;2024-03-29T07:42:21;98214.69;;;5.72;69.93
35443;BME280;21561;55.654;37.592;2024-03-29T07:44:48;98213.00;;;5.71;69.53
35443;BME280;21561;55.654;37.592;2024-03-29T07:47:14;98208.72;;;5.70;69.96
35443;BME280;21561;55.654;37.592;2024-03-29T07:49:40;98202.72;;;5.71;70.45
35443;BME280;21561;55.654;37.592;2024-03-29T07:52:06;98207.03;;;5.67;70.49
35443;BME280;21561;55.654;37.592;2024-03-29T07:54:34;98209.66;;;5.63;70.88
35443;BME280;21561;55.654;37.592;2024-03-29T07:57:01;98194.19;;;5.63;71.18
35443;BME280;21561;55.654;37.592;2024-03-29T07:59:28;98210.53;;;5.60;72.25
35443;BME280;21561;55.654;37.592;2024-03-29T08:01:54;98205.41;;;5.59;75.23
35443;BME280;21561;55.654;37.592;2024-03-29T08:04:21;98205.34;;;5.63;74.28
35443;BME280;21561;55.654;37.592;2024-03-29T08:06:47;98202.00;;;5.55;75.66
35443;BME280;21561;55.654;37.592;2024-03-29T08:09:13;98185.88;;;5.39;77.68
35443;BME280;21561;55.654;37.592;2024-03-29T08:11:40;98175.66;;;5.30;79.26
35443;BME280;21561;55.654;37.592;2024-03-29T08:14:06;98163.66;;;5.29;81.38
35443;BME280;21561;55.654;37.592;2024-03-29T08:16:33;98156.78;;;5.31;81.73
35443;BME280;21561;55.654;37.592;2024-03-29T08:18:59;98152.44;;;5.38;81.65
35443;BME280;21561;55.654;37.592;2024-03-29T08:21:25;98178.16;;;5.39;80.27
35443;BME280;21561;55.654;37.592;2024-03-29T08:23:53;98177.38;;;5.31;79.72
35443;BME280;21561;55.654;37.592;2024-03-29T08:26:24;98185.16;;;5.23;79.98
35443;BME280;21561;55.654;37.592;2024-03-29T08:28:50;98177.47;;;5.19;80.33
35443;BME280;21561;55.654;37.592;2024-03-29T08:31:16;98186.94;;;5.15;79.79
35443;BME280;21561;55.654;37.592;2024-03-29T08:33:42;98194.69;;;5.13;80.31
35443;BME280;21561;55.654;37.592;2024-03-29T08:36:09;98204.94;;;5.15;80.38
35443;BME280;21561;55.654;37.592;2024-03-29T08:38:37;98194.63;;;5.18;80.40
35443;BME280;21561;55.654;37.592;2024-03-29T08:41:06;98188.56;;;5.25;80.41
35443;BME280;21561;55.654;37.592;2024-03-29T08:43:33;98184.22;;;5.32;79.18
35443;BME280;21561;55.654;37.592;2024-03-29T08:46:00;98181.63;;;5.35;78.53
35443;BME280;21561;55.654;37.592;2024-03-29T08:48:29;98166.16;;;5.38;78.18
35443;BME280;21561;55.654;37.592;2024-03-29T08:50:55;98169.59;;;5.40;78.75
35443;BME280;21561;55.654;37.592;2024-03-29T08:53:22;98170.41;;;5.42;78.17
35443;BME280;21561;55.654;37.592;2024-03-29T08:55:49;98165.19;;;5.48;77.40
35443;BME280;21561;55.654;37.592;2024-03-29T08:58:15;98182.38;;;5.45;76.66
35443;BME280;21561;55.654;37.592;2024-03-29T09:00:41;98175.56;;;5.39;76.65
35443;BME280;21561;55.654;37.592;2024-03-29T09:03:07;98176.50;;;5.35;76.74
35443;BME280;21561;55.654;37.592;2024-03-29T09:05:33;98179.06;;;5.35;77.04
35443;BME280;21561;55.654;37.592;2024-03-29T09:07:59;98168.78;;;5.32;77.23
35443;BME280;21561;55.654;37.592;2024-03-29T09:10:25;98167.06;;;5.31;77.49
35443;BME280;21561;55.654;37.592;2024-03-29T09:12:53;98167.06;;;5.32;77.58
35443;BME280;21561;55.654;37.592;2024-03-29T09:15:19;98173.03;;;5.38;77.47
35443;BME280;21561;55.654;37.592;2024-03-29T09:17:46;98158.41;;;5.40;77.13
35443;BME280;21561;55.654;37.592;2024-03-29T09:20:13;98154.97;;;5.42;77.32
35443;BME280;21561;55.654;37.592;2024-03-29T09:22:40;98160.06;;;5.45;77.22
35443;BME280;21561;55.654;37.592;2024-03-29T09:25:07;98160.03;;;5.51;77.00
35443;BME280;21561;55.654;37.592;2024-03-29T09:27:37;98151.41;;;5.55;77.39
35443;BME280;21561;55.654;37.592;2024-03-29T09:30:06;98161.66;;;5.60;77.43
35443;BME280;21561;55.654;37.592;2024-03-29T09:32:33;98159.91;;;5.61;77.39
35443;BME280;21561;55.654;37.592;2024-03-29T09:34:59;98157.31;;;5.64;77.53
35443;BME280;21561;55.654;37.592;2024-03-29T09:37:27;98141.00;;;5.65;76.96
35443;BME280;21561;55.654;37.592;2024-03-29T09:39:53;98154.69;;;5.67;77.45
35443;BME280;21561;55.654;37.592;2024-03-29T09:42:21;98161.56;;;5.68;77.54
35443;BME280;21561;55.654;37.592;2024-03-29T09:44:49;98170.13;;;5.67;78.03
35443;BME280;21561;55.654;37.592;2024-03-29T09:47:17;98162.50;;;5.59;78.01
35443;BME280;21561;55.654;37.592;2024-03-29T09:49:44;98151.34;;;5.62;78.15
35443;BME280;21561;55.654;37.592;2024-03-29T09:52:12;98153.03;;;5.63;78.31
35443;BME280;21561;55.654;37.592;2024-03-29T09:54:38;98151.31;;;5.63;78.18
35443;BME280;21561;55.654;37.592;2024-03-29T09:57:05;98149.53;;;5.70;78.31
35443;BME280;21561;55.654;37.592;2024-03-29T09:59:30;98148.69;;;5.69;77.89
35443;BME280;21561;55.654;37.592;2024-03-29T10:01:58;98155.44;;;5.77;78.24
35443;BME280;21561;55.654;37.592;2024-03-29T10:04:27;98145.94;;;5.83;77.58
35443;BME280;21561;55.654;37.592;2024-03-29T10:06:54;98142.38;;;5.97;77.77
35443;BME280;21561;55.654;37.592;2024-03-29T10:09:22;98140.50;;;6.08;77.17
35443;BME280;21561;55.654;37.592;2024-03-29T10:11:48;98143.88;;;6.13;76.46
35443;BME280;21561;55.654;37.592;2024-03-29T10:14:14;98145.47;;;6.23;76.61
35443;BME280;21561;55.654;37.592;2024-03-29T10:16:40;98133.31;;;6.31;76.06
35443;BME280;21561;55.654;37.592;2024-03-29T10:19:07;98127.19;;;6.39;75.50
35443;BME280;21561;55.654;37.592;2024-03-29T10:21:33;98124.63;;;6.39;75.24
35443;BME280;21561;55.654;37.592;2024-03-29T10:24:15;98138.28;;;6.44;75.14
35443;BME280;21561;55.654;37.592;2024-03-29T10:26:43;98132.47;;;6.29;75.91
35443;BME280;21561;55.654;37.592;2024-03-29T10:29:09;98129.91;;;6.29;75.75
35443;BME280;21561;55.654;37.592;2024-03-29T10:31:36;98133.38;;;6.28;76.06
35443;BME280;21561;55.654;37.592;2024-03-29T10:34:05;98121.19;;;6.40;75.60
35443;BME280;21561;55.654;37.592;2024-03-29T10:36:32;98115.91;;;6.47;75.14
35443;BME280;21561;55.654;37.592;2024-03-29T10:39:02;98116.53;;;6.62;74.88
35443;BME280;21561;55.654;37.592;2024-03-29T10:41:39;98110.06;;;6.89;74.19
35443;BME280;21561;55.654;37.592;2024-03-29T10:44:10;98104.78;;;6.98;73.07
35443;BME280;21561;55.654;37.592;2024-03-29T10:46:40;98108.94;;;7.07;73.42
35443;BME280;21561;55.654;37.592;2024-03-29T10:49:09;98111.31;;;7.18;72.65
35443;BME280;21561;55.654;37.592;2024-03-29T10:51:38;98103.53;;;7.19;72.49
35443;BME280;21561;55.654;37.592;2024-03-29T10:54:08;98090.59;;;7.22;72.52
35443;BME280;21561;55.654;37.592;2024-03-29T10:56:40;98097.28;;;7.33;71.96
35443;BME280;21561;55.654;37.592;2024-03-29T11:01:52;98102.97;;;7.50;71.53
35443;BME280;21561;55.654;37.592;2024-03-29T11:04:22;98087.59;;;7.44;72.18
35443;BME280;21561;55.654;37.592;2024-03-29T11:06:51;98092.91;;;7.36;72.36
35443;BME280;21561;55.654;37.592;2024-03-29T11:09:20;98089.44;;;7.37;72.43
35443;BME280;21561;55.654;37.592;2024-03-29T11:11:48;98090.16;;;7.45;72.29
35443;BME280;21561;55.654;37.592;2024-03-29T11:14:52;98076.13;;;7.59;72.28
35443;BME280;21561;55.654;37.592;2024-03-29T11:17:16;98089.69;;;7.70;71.01
35443;BME280;21561;55.654;37.592;2024-03-29T11:19:42;98082.53;;;7.81;70.96
35443;BME280;21561;55.654;37.592;2024-03-29T11:22:09;98085.03;;;7.86;70.77
35443;BME280;21561;55.654;37.592;2024-03-29T11:24:38;98072.59;;;8.03;70.69
35443;BME280;21561;55.654;37.592;2024-03-29T11:27:11;98071.13;;;8.31;69.78
35443;BME280;21561;55.654;37.592;2024-03-29T11:29:37;98081.44;;;8.70;68.46
35443;BME280;21561;55.654;37.592;2024-03-29T11:32:07;98075.84;;;8.87;67.25
35443;BME280;21561;55.654;37.592;2024-03-29T11:34:34;98072.31;;;9.22;65.79
35443;BME280;21561;55.654;37.592;2024-03-29T11:37:07;98067.66;;;9.66;64.41
35443;BME280;21561;55.654;37.592;2024-03-29T11:39:33;98049.25;;;10.34;62.32
35443;BME280;21561;55.654;37.592;2024-03-29T11:42:01;98033.25;;;11.24;59.24
35443;BME280;21561;55.654;37.592;2024-03-29T11:44:27;98008.50;;;11.85;56.79
35443;BME280;21561;55.654;37.592;2024-03-29T11:46:58;98002.00;;;12.41;54.61
35443;BME280;21561;55.654;37.592;2024-03-29T11:49:24;97976.81;;;12.41;54.09
35443;BME280;21561;55.654;37.592;2024-03-29T11:51:50;97974.03;;;12.67;53.21
35443;BME280;21561;55.654;37.592;2024-03-29T11:54:16;97963.88;;;12.81;52.47
35443;BME280;21561;55.654;37.592;2024-03-29T11:56:42;97976.06;;;12.80;52.31
35443;BME280;21561;55.654;37.592;2024-03-29T11:59:08;97970.00;;;13.01;51.56
35443;BME280;21561;55.654;37.592;2024-03-29T12:01:36;97944.13;;;13.37;50.59
35443;BME280;21561;55.654;37.592;2024-03-29T12:04:05;97930.81;;;13.80;49.51
35443;BME280;21561;55.654;37.592;2024-03-29T12:06:31;97929.09;;;13.80;49.56
35443;BME280;21561;55.654;37.592;2024-03-29T12:08:57;97913.63;;;13.39;49.36
35443;BME280;21561;55.654;37.592;2024-03-29T12:11:23;97980.09;;;13.67;50.49
35443;BME280;21561;55.654;37.592;2024-03-29T12:13:50;97943.22;;;13.93;48.73
35443;BME280;21561;55.654;37.592;2024-03-29T12:16:16;97937.84;;;13.97;48.57
35443;BME280;21561;55.654;37.592;2024-03-29T12:18:46;97947.97;;;14.39;48.64
35443;BME280;21561;55.654;37.592;2024-03-29T12:21:12;97926.06;;;14.42;48.31
35443;BME280;21561;55.654;37.592;2024-03-29T12:23:46;97918.69;;;14.85;47.41
35443;BME280;21561;55.654;37.592;2024-03-29T12:26:12;97879.72;;;14.64;46.56
35443;BME280;21561;55.654;37.592;2024-03-29T12:28:38;97909.75;;;14.89;46.88
35443;BME280;21561;55.654;37.592;2024-03-29T12:31:09;97863.38;;;15.10;45.90
35443;BME280;21561;55.654;37.592;2024-03-29T12:33:35;97840.69;;;14.95;45.48
35443;BME280;21561;55.654;37.592;2024-03-29T12:36:01;97861.81;;;15.07;45.88
35443;BME280;21561;55.654;37.592;2024-03-29T12:38:26;97866.22;;;15.05;45.83
35443;BME280;21561;55.654;37.592;2024-03-29T12:40:53;97874.09;;;15.37;45.60
35443;BME280;21561;55.654;37.592;2024-03-29T12:43:23;97837.00;;;15.46;45.13
35443;BME280;21561;55.654;37.592;2024-03-29T12:45:51;97830.50;;;15.54;44.64
35443;BME280;21561;55.654;37.592;2024-03-29T12:48:22;97835.16;;;15.17;45.03
35443;BME280;21561;55.654;37.592;2024-03-29T12:50:51;97890.25;;;14.96;45.87
35443;BME280;21561;55.654;37.592;2024-03-29T12:53:19;97893.13;;;14.92;45.76
35443;BME280;21561;55.654;37.592;2024-03-29T12:55:47;97914.50;;;14.82;46.21
35443;BME280;21561;55.654;37.592;2024-03-29T12:58:15;97924.25;;;14.95;46.06
35443;BME280;21561;55.654;37.592;2024-03-29T13:00:44;97910.41;;;15.10;45.95
35443;BME280;21561;55.654;37.592;2024-03-29T13:03:10;97908.84;;;15.39;45.75
35443;BME280;21561;55.654;37.592;2024-03-29T13:05:37;97871.03;;;14.97;45.64